Time;durP1;ratioP1;P1;durP2;ratioP2;P2;SDS_P1;SDS_P2;PMS_P1;PMS_P2;Temp;Humidity;BMP_temperature;BMP_pressure;BME280_temperature;BME280_humidity;BME280_pressure;Samples;Min_cycle;Max_cycle;Signal;HPM_P1;HPM_P2
2022/08/03 00:01:39;;;;;;;;;;;;;;;15.49;63.97;100675.06;4991904;28;1165;-56
2022/08/03 00:04:04;;;;;;;;;;;;;;;17.93;63.94;100680.84;4992380;28;971;-56
2022/08/03 00:06:30;;;;;;;;;;;;;;;17.94;59.85;100672.28;4989747;28;1133;-56
2022/08/03 00:08:55;;;;;;;;;;;;;;;15.74;67.87;100674.31;4983814;28;1085;-56
2022/08/03 00:11:21;;;;;;;;;;;;;;;18.31;61.56;100675.59;4983765;28;1963;-57
2022/08/03 00:13:46;;;;;;;;;;;;;;;15.84;63.42;100670.81;4983154;28;1007;-56
2022/08/03 00:16:12;;;;;;;;;;;;;;;17.55;64.54;100674.97;4996072;28;1018;-56
2022/08/03 00:18:37;;;;;;;;;;;;;;;18.13;60.27;100677.94;4990151;28;996;-56
2022/08/03 00:21:03;;;;;;;;;;;;;;;15.43;68.09;100676.13;4982956;28;1038;-56
2022/08/03 00:23:28;;;;;;;;;;;;;;;18.53;62.04;100677.09;4988932;28;1015;-56
2022/08/03 00:25:54;;;;;;;;;;;;;;;16.46;62.69;100673.59;4995409;28;1027;-56
2022/08/03 00:28:19;;;;;;;;;;;;;;;17.09;65.61;100668.53;4994413;28;1080;-56
2022/08/03 00:30:45;;;;;;;;;;;;;;;18.23;60.57;100667.97;4992275;28;2539;-56
2022/08/03 00:33:10;;;;;;;;;;;;;;;15.22;65.79;100660.44;4986128;28;1023;-56
2022/08/03 00:35:36;;;;;;;;;;;;;;;18.34;63.22;100665.94;4988279;28;1030;-56
2022/08/03 00:38:01;;;;;;;;;;;;;;;17.08;61.17;100655.09;4990722;28;1106;-56
2022/08/03 00:40:27;;;;;;;;;;;;;;;16.41;66.35;100669.75;4986184;28;1015;-56
2022/08/03 00:42:53;;;;;;;;;;;;;;;18.20;60.74;100665.78;4993448;28;1106;-56
2022/08/03 00:45:19;;;;;;;;;;;;;;;15.26;63.79;100663.44;4986389;28;1043;-56
2022/08/03 00:47:44;;;;;;;;;;;;;;;17.93;63.55;100664.34;4994921;28;1007;-56
2022/08/03 00:50:10;;;;;;;;;;;;;;;17.78;59.85;100673.47;4999501;28;983;-58
2022/08/03 00:52:35;;;;;;;;;;;;;;;15.89;67.81;100674.38;5013043;28;2015;-57
2022/08/03 00:55:01;;;;;;;;;;;;;;;18.33;61.07;100667.06;4997615;28;1086;-57
2022/08/03 00:57:27;;;;;;;;;;;;;;;15.73;63.63;100676.22;4990362;28;994;-57
2022/08/03 00:59:53;;;;;;;;;;;;;;;17.67;64.30;100669.97;4994360;28;2552;-57
2022/08/03 01:02:18;;;;;;;;;;;;;;;18.11;59.58;100668.34;4994559;28;998;-57
2022/08/03 01:04:44;;;;;;;;;;;;;;;15.29;67.73;100675.78;4993246;28;1141;-57
2022/08/03 01:07:09;;;;;;;;;;;;;;;18.28;61.88;100665.97;4992479;28;1073;-57
2022/08/03 01:09:37;;;;;;;;;;;;;;;16.25;62.33;100655.19;4987481;28;963;-57
2022/08/03 01:12:06;;;;;;;;;;;;;;;17.21;65.22;100667.44;5006710;28;1975;-57
2022/08/03 01:14:32;;;;;;;;;;;;;;;18.05;60.26;100675.00;4991935;28;1070;-57
2022/08/03 01:17:01;;;;;;;;;;;;;;;15.15;66.78;100667.22;4982699;28;1138;-57
2022/08/03 01:19:45;;;;;;;;;;;;;;;18.39;62.02;100671.44;4989887;28;1003;-58
2022/08/03 01:22:17;;;;;;;;;;;;;;;16.03;62.74;100666.44;4991663;28;967;-58
2022/08/03 01:25:00;;;;;;;;;;;;;;;17.50;64.71;100662.09;5003639;28;1014;-58
2022/08/03 01:27:52;;;;;;;;;;;;;;;17.92;59.48;100666.28;4996557;28;1030;-58
2022/08/03 01:30:18;;;;;;;;;;;;;;;16.45;66.17;100669.19;4984496;28;2578;-56
2022/08/03 01:33:02;;;;;;;;;;;;;;;18.25;60.96;100666.56;4994105;28;1914;-57
2022/08/03 01:35:33;;;;;;;;;;;;;;;15.29;65.70;100670.31;4990068;28;991;-57
2022/08/03 01:38:02;;;;;;;;;;;;;;;18.45;62.83;100676.59;4992694;28;1205;-57
2022/08/03 01:40:27;;;;;;;;;;;;;;;16.63;62.39;100676.84;4988109;28;998;-57
2022/08/03 01:42:53;;;;;;;;;;;;;;;16.76;66.42;100673.56;4988927;28;1114;-57
2022/08/03 01:45:19;;;;;;;;;;;;;;;18.33;60.79;100672.56;4991248;28;1028;-57
2022/08/03 01:47:44;;;;;;;;;;;;;;;15.26;65.27;100677.13;5009372;28;1007;-57
2022/08/03 01:50:10;;;;;;;;;;;;;;;18.20;63.46;100674.03;4996567;28;1019;-57
2022/08/03 01:52:36;;;;;;;;;;;;;;;17.39;61.05;100669.56;4993821;28;1914;-57
2022/08/03 01:55:01;;;;;;;;;;;;;;;16.23;67.44;100675.78;5002798;28;1208;-57
2022/08/03 01:57:27;;;;;;;;;;;;;;;18.36;61.15;100670.06;4993252;28;909;-57
2022/08/03 01:59:53;;;;;;;;;;;;;;;15.46;64.09;100670.09;4994198;28;2686;-57
2022/08/03 02:02:18;;;;;;;;;;;;;;;17.74;63.68;100667.72;4999022;28;1085;-57
2022/08/03 02:04:44;;;;;;;;;;;;;;;18.03;59.69;100669.75;4987479;28;1204;-57
2022/08/03 02:07:09;;;;;;;;;;;;;;;15.72;68.41;100677.31;5011975;28;1163;-56
2022/08/03 02:09:36;;;;;;;;;;;;;;;18.47;61.45;100671.63;4995642;28;920;-56
2022/08/03 02:12:01;;;;;;;;;;;;;;;15.90;63.63;100675.19;5012216;28;1906;-57
2022/08/03 02:14:27;;;;;;;;;;;;;;;17.40;64.84;100679.44;4995575;28;1061;-58
2022/08/03 02:16:52;;;;;;;;;;;;;;;18.08;60.28;100677.97;4992988;28;1121;-58
2022/08/03 02:19:17;;;;;;;;;;;;;;;15.13;67.55;100672.97;4994327;28;1037;-58
2022/08/03 02:21:43;;;;;;;;;;;;;;;18.37;62.04;100677.22;4994561;28;959;-58
2022/08/03 02:24:08;;;;;;;;;;;;;;;16.39;62.15;100677.41;4982264;28;1385;-58
2022/08/03 02:26:34;;;;;;;;;;;;;;;17.01;65.85;100671.06;4996268;28;1382;-58
2022/08/03 02:29:01;;;;;;;;;;;;;;;18.20;60.41;100674.88;5005931;28;2475;-58
2022/08/03 02:31:28;;;;;;;;;;;;;;;15.25;66.12;100678.25;4985739;28;1910;-58
2022/08/03 02:33:55;;;;;;;;;;;;;;;18.41;62.91;100674.69;4991801;28;1070;-58
2022/08/03 02:36:27;;;;;;;;;;;;;;;16.80;62.00;100670.25;5005497;28;994;-58
2022/08/03 02:38:54;;;;;;;;;;;;;;;16.49;64.46;100684.81;4991606;28;955;-58
2022/08/03 02:41:24;;;;;;;;;;;;;;;17.98;60.23;100682.72;4982993;28;1034;-58
2022/08/03 02:43:50;;;;;;;;;;;;;;;15.10;65.84;100678.19;4989721;28;1058;-58
2022/08/03 02:46:19;;;;;;;;;;;;;;;18.25;62.74;100672.06;4995241;28;1126;-58
2022/08/03 02:48:44;;;;;;;;;;;;;;;16.83;61.69;100675.19;5012198;28;1386;-59
2022/08/03 02:51:10;;;;;;;;;;;;;;;16.59;66.11;100682.09;4993365;28;1910;-58
2022/08/03 02:53:35;;;;;;;;;;;;;;;18.32;60.93;100682.75;4997429;28;1185;-58
2022/08/03 02:56:01;;;;;;;;;;;;;;;15.27;64.46;100681.53;4980760;28;935;-59
2022/08/03 02:58:26;;;;;;;;;;;;;;;18.07;63.46;100678.28;5007392;28;1061;-59
2022/08/03 03:00:51;;;;;;;;;;;;;;;17.66;60.36;100673.00;4997324;28;2570;-58
2022/08/03 03:03:17;;;;;;;;;;;;;;;16.05;67.90;100672.47;4994854;28;967;-58
2022/08/03 03:05:42;;;;;;;;;;;;;;;18.39;61.50;100677.75;4986424;28;1031;-58
2022/08/03 03:08:08;;;;;;;;;;;;;;;15.56;64.04;100667.41;4991029;28;1066;-58
2022/08/03 03:10:33;;;;;;;;;;;;;;;17.74;64.35;100678.72;4994075;28;991;-57
2022/08/03 03:12:59;;;;;;;;;;;;;;;18.10;60.24;100688.69;4980862;28;1910;-57
2022/08/03 03:15:24;;;;;;;;;;;;;;;15.63;68.09;100695.38;4993128;28;1079;-57
2022/08/03 03:17:50;;;;;;;;;;;;;;;18.55;61.77;100694.13;4989980;28;987;-54
2022/08/03 03:20:15;;;;;;;;;;;;;;;16.07;63.41;100686.75;4993751;28;1081;-57
2022/08/03 03:22:41;;;;;;;;;;;;;;;17.36;65.21;100697.59;4992481;28;1216;-57
2022/08/03 03:25:06;;;;;;;;;;;;;;;18.21;60.52;100694.97;4992836;28;1074;-57
2022/08/03 03:27:32;;;;;;;;;;;;;;;14.90;65.69;100696.13;4983229;28;1126;-57
2022/08/03 03:29:58;;;;;;;;;;;;;;;18.26;62.47;100705.94;4998775;28;2585;-56
2022/08/03 03:32:25;;;;;;;;;;;;;;;16.43;62.20;100700.47;4991866;28;1902;-54
2022/08/03 03:34:50;;;;;;;;;;;;;;;16.89;65.82;100696.09;4996359;28;951;-55
2022/08/03 03:37:16;;;;;;;;;;;;;;;18.27;60.41;100702.06;4996121;28;983;-57
2022/08/03 03:39:41;;;;;;;;;;;;;;;15.19;65.12;100709.44;4983209;28;912;-56
2022/08/03 03:42:07;;;;;;;;;;;;;;;18.19;63.14;100709.00;4995155;28;1023;-56
2022/08/03 03:44:32;;;;;;;;;;;;;;;17.19;60.72;100697.09;4990461;28;1110;-57
2022/08/03 03:46:58;;;;;;;;;;;;;;;16.45;66.86;100707.63;5007920;28;1015;-57
2022/08/03 03:49:23;;;;;;;;;;;;;;;18.32;61.20;100715.78;5007230;28;1073;-57
2022/08/03 03:51:51;;;;;;;;;;;;;;;15.45;63.77;100715.06;4991048;28;1898;-58
2022/08/03 03:54:17;;;;;;;;;;;;;;;17.84;63.59;100710.84;4990613;28;1129;-55
2022/08/03 03:56:42;;;;;;;;;;;;;;;17.82;59.72;100706.72;4989417;28;1070;-57
2022/08/03 03:59:08;;;;;;;;;;;;;;;15.87;68.15;100711.38;4984327;28;2538;-55
2022/08/03 04:01:33;;;;;;;;;;;;;;;18.34;61.53;100710.84;4993580;28;995;-56
2022/08/03 04:10:57;;;;;;;;;;;;;;;15.74;63.45;100709.94;5011026;28;1093;-56
2022/08/03 04:12:12;;;;;;;;;;;;;;;16.98;65.89;100723.81;4976403;28;1915;-56
2022/08/03 04:14:38;;;;;;;;;;;;;;;18.13;60.71;100721.13;4985703;28;994;-56
2022/08/03 04:17:04;;;;;;;;;;;;;;;15.15;65.38;100717.38;4981631;28;1019;-55
2022/08/03 04:19:31;;;;;;;;;;;;;;;18.17;63.00;100718.66;4985851;28;991;-57
2022/08/03 04:21:58;;;;;;;;;;;;;;;17.06;60.97;100721.31;4979389;28;1074;-57
2022/08/03 04:24:24;;;;;;;;;;;;;;;16.54;66.38;100727.94;4981148;28;983;-56
2022/08/03 04:26:50;;;;;;;;;;;;;;;18.29;60.75;100727.38;4979076;28;1132;-56
2022/08/03 04:29:15;;;;;;;;;;;;;;;15.31;64.04;100723.75;4980380;28;2567;-57
2022/08/03 04:31:42;;;;;;;;;;;;;;;17.89;63.28;100718.25;5003351;28;1977;-57
2022/08/03 04:34:07;;;;;;;;;;;;;;;17.70;59.83;100727.16;4987837;28;1019;-58
2022/08/03 04:36:35;;;;;;;;;;;;;;;16.02;67.97;100729.78;4993829;28;1039;-57
2022/08/03 04:39:12;;;;;;;;;;;;;;;18.37;61.16;100731.44;4990467;28;1026;-57
2022/08/03 04:41:38;;;;;;;;;;;;;;;15.37;64.03;100732.81;4995728;28;1085;-57
2022/08/03 04:44:03;;;;;;;;;;;;;;;17.98;63.74;100726.75;4979336;28;908;-57
2022/08/03 04:46:31;;;;;;;;;;;;;;;18.00;59.31;100722.59;4988690;28;1208;-56
2022/08/03 04:48:56;;;;;;;;;;;;;;;15.79;67.96;100722.84;4988531;28;1205;-55
2022/08/03 04:51:21;;;;;;;;;;;;;;;18.27;61.34;100730.41;4985911;28;1915;-56
2022/08/03 04:53:47;;;;;;;;;;;;;;;15.77;63.45;100719.53;5000244;28;1089;-56
2022/08/03 04:56:12;;;;;;;;;;;;;;;17.54;64.57;100729.13;4989769;28;1054;-56
2022/08/03 04:58:38;;;;;;;;;;;;;;;18.09;59.67;100722.81;4978585;28;2391;-57
2022/08/03 05:01:03;;;;;;;;;;;;;;;15.40;67.97;100727.63;4993589;28;1042;-57
2022/08/03 05:03:30;;;;;;;;;;;;;;;18.36;61.78;100727.88;4995986;28;1114;-58
2022/08/03 05:05:56;;;;;;;;;;;;;;;16.34;62.38;100728.72;4989740;28;1078;-57
2022/08/03 05:08:21;;;;;;;;;;;;;;;17.10;65.12;100729.81;4985120;28;1153;-58
2022/08/03 05:10:47;;;;;;;;;;;;;;;18.08;60.07;100730.25;4986939;28;877;-58
2022/08/03 05:13:13;;;;;;;;;;;;;;;15.17;65.39;100728.88;4985545;28;1914;-57
2022/08/03 05:15:38;;;;;;;;;;;;;;;18.32;62.20;100726.81;4995494;28;1291;-58
2022/08/03 05:18:04;;;;;;;;;;;;;;;16.82;61.27;100733.97;4992612;28;1141;-56
2022/08/03 05:20:30;;;;;;;;;;;;;;;16.70;65.98;100737.78;4994423;28;1263;-57
2022/08/03 05:22:55;;;;;;;;;;;;;;;18.16;60.66;100730.75;4992964;28;1272;-57
2022/08/03 05:25:21;;;;;;;;;;;;;;;15.31;64.38;100747.59;4995614;28;1086;-57
2022/08/03 05:27:46;;;;;;;;;;;;;;;17.99;62.91;100745.72;4995145;28;1042;-57
2022/08/03 05:30:12;;;;;;;;;;;;;;;17.48;59.93;100745.94;4992708;28;2360;-58
2022/08/03 05:32:37;;;;;;;;;;;;;;;16.17;67.28;100756.44;4997087;28;1934;-56
2022/08/03 05:35:03;;;;;;;;;;;;;;;18.23;60.79;100754.13;4998092;28;1217;-57
2022/08/03 05:37:28;;;;;;;;;;;;;;;15.57;63.68;100754.00;4998148;28;1260;-57
2022/08/03 05:39:54;;;;;;;;;;;;;;;17.78;63.78;100754.06;4993861;28;1212;-59
2022/08/03 05:42:19;;;;;;;;;;;;;;;18.04;59.40;100751.19;4992407;28;860;-57
2022/08/03 05:44:45;;;;;;;;;;;;;;;15.48;67.67;100752.88;4998066;28;955;-57
2022/08/03 05:47:10;;;;;;;;;;;;;;;18.22;61.20;100752.47;4995013;28;936;-57
2022/08/03 05:49:35;;;;;;;;;;;;;;;18.29;59.87;100754.91;4995898;28;1022;-56
2022/08/03 05:52:01;;;;;;;;;;;;;;;18.32;59.02;100754.31;4992639;28;1914;-56
2022/08/03 05:54:26;;;;;;;;;;;;;;;18.21;58.99;100747.25;4984708;28;1110;-57
2022/08/03 05:56:52;;;;;;;;;;;;;;;18.19;58.44;100761.31;4994103;28;1148;-57
2022/08/03 05:59:18;;;;;;;;;;;;;;;18.07;58.58;100752.56;4997863;28;2094;-57
2022/08/03 06:01:43;;;;;;;;;;;;;;;18.02;58.33;100744.31;4998134;28;1213;-55
2022/08/03 06:04:09;;;;;;;;;;;;;;;17.99;58.17;100759.47;4998436;28;1280;-57
2022/08/03 06:06:35;;;;;;;;;;;;;;;18.00;57.97;100752.88;4998012;28;1300;-55
2022/08/03 06:09:00;;;;;;;;;;;;;;;17.94;58.01;100754.81;4997857;28;1264;-56
2022/08/03 06:11:25;;;;;;;;;;;;;;;17.93;57.78;100755.13;4997367;28;1980;-58
2022/08/03 06:13:51;;;;;;;;;;;;;;;17.87;57.90;100754.28;4998152;28;1284;-57
2022/08/03 06:16:16;;;;;;;;;;;;;;;17.82;57.90;100759.81;4997350;28;1315;-56
2022/08/03 06:18:42;;;;;;;;;;;;;;;17.81;57.86;100765.59;4997612;28;1256;-57
2022/08/03 06:21:07;;;;;;;;;;;;;;;17.81;57.47;100754.59;4997878;28;1402;-58
2022/08/03 06:23:33;;;;;;;;;;;;;;;17.75;57.54;100757.38;4991092;28;881;-58
2022/08/03 06:25:58;;;;;;;;;;;;;;;17.72;57.53;100757.91;4997004;28;999;-59
2022/08/03 06:28:23;;;;;;;;;;;;;;;17.71;57.36;100749.97;4987685;28;975;-57
2022/08/03 06:30:49;;;;;;;;;;;;;;;17.70;57.38;100748.34;4997165;28;2525;-59
2022/08/03 06:33:15;;;;;;;;;;;;;;;17.65;57.37;100757.41;4979067;28;1906;-61
2022/08/03 06:35:40;;;;;;;;;;;;;;;17.65;57.21;100751.09;4986263;28;924;-62
2022/08/03 06:38:06;;;;;;;;;;;;;;;17.60;57.32;100757.44;4987609;28;1053;-61
2022/08/03 06:40:32;;;;;;;;;;;;;;;17.63;57.18;100756.88;4989184;28;1176;-61
2022/08/03 06:42:58;;;;;;;;;;;;;;;17.56;57.23;100748.13;5006021;28;1303;-64
2022/08/03 06:45:24;;;;;;;;;;;;;;;17.60;57.06;100751.94;4993831;28;939;-60
2022/08/03 06:48:19;;;;;;;;;;;;;;;17.54;57.21;100750.31;4988394;28;1147;-60
2022/08/03 06:50:44;;;;;;;;;;;;;;;17.51;57.29;100756.38;4988461;28;1259;-58
2022/08/03 06:53:10;;;;;;;;;;;;;;;17.47;57.20;100749.78;4987744;28;1911;-60
2022/08/03 06:55:35;;;;;;;;;;;;;;;17.44;57.42;100757.47;4978217;28;1067;-59
2022/08/03 06:58:01;;;;;;;;;;;;;;;17.41;57.39;100760.78;4985671;28;1062;-59
2022/08/03 07:00:27;;;;;;;;;;;;;;;17.46;57.24;100759.97;4993117;28;2567;-58
2022/08/03 07:02:52;;;;;;;;;;;;;;;17.49;57.17;100753.06;4990437;28;1109;-59
2022/08/03 07:05:18;;;;;;;;;;;;;;;17.43;57.19;100761.34;4991130;28;1038;-60
2022/08/03 07:07:43;;;;;;;;;;;;;;;17.40;57.09;100753.66;4993971;28;964;-60
2022/08/03 07:10:10;;;;;;;;;;;;;;;17.34;57.41;100752.03;4995522;28;1050;-58
2022/08/03 07:12:35;;;;;;;;;;;;;;;17.37;57.25;100750.63;4992378;28;1910;-58
2022/08/03 07:15:01;;;;;;;;;;;;;;;17.41;57.25;100758.03;4993193;28;1046;-60
2022/08/03 07:17:28;;;;;;;;;;;;;;;17.39;57.00;100749.25;4982947;28;1018;-59
2022/08/03 07:19:53;;;;;;;;;;;;;;;17.36;57.22;100755.31;4994891;28;1062;-59
2022/08/03 07:22:18;;;;;;;;;;;;;;;17.32;57.38;100758.91;4995793;28;979;-55
2022/08/03 07:24:44;;;;;;;;;;;;;;;17.33;57.13;100763.28;4995303;28;1074;-60
2022/08/03 07:27:10;;;;;;;;;;;;;;;17.32;57.08;100765.22;4995764;28;1049;-59
2022/08/03 07:29:35;;;;;;;;;;;;;;;17.29;57.26;100768.50;4996363;28;1958;-57
2022/08/03 07:32:01;;;;;;;;;;;;;;;17.34;57.13;100765.75;4990221;28;1977;-57
2022/08/03 07:34:26;;;;;;;;;;;;;;;17.27;57.47;100777.03;4995354;28;1026;-58
2022/08/03 07:36:52;;;;;;;;;;;;;;;17.27;57.07;100777.03;4994903;28;1023;-59
2022/08/03 07:39:17;;;;;;;;;;;;;;;17.28;57.36;100775.13;4995650;28;1061;-56
2022/08/03 07:41:43;;;;;;;;;;;;;;;17.20;57.37;100765.50;4992788;28;1091;-57
2022/08/03 07:44:08;;;;;;;;;;;;;;;17.22;57.53;100776.22;4983055;28;1137;-56
2022/08/03 07:46:33;;;;;;;;;;;;;;;17.25;57.45;100775.66;4995630;28;1185;-51
2022/08/03 07:48:59;;;;;;;;;;;;;;;17.20;57.52;100771.00;4995911;28;1288;-54
2022/08/03 07:51:24;;;;;;;;;;;;;;;17.24;57.36;100771.28;4995738;28;1910;-57
2022/08/03 07:53:50;;;;;;;;;;;;;;;17.17;57.64;100770.75;4996221;28;1236;-55
2022/08/03 07:56:15;;;;;;;;;;;;;;;17.17;57.62;100762.53;4994951;28;1110;-55
2022/08/03 07:58:41;;;;;;;;;;;;;;;17.20;57.33;100771.00;4995439;28;2557;-53
2022/08/03 08:01:06;;;;;;;;;;;;;;;17.22;57.16;100770.72;4992108;28;975;-53
2022/08/03 08:03:32;;;;;;;;;;;;;;;17.21;57.08;100777.34;4986079;28;1074;-55
2022/08/03 08:05:57;;;;;;;;;;;;;;;17.17;57.36;100779.81;4990053;28;1054;-56
2022/08/03 08:08:23;;;;;;;;;;;;;;;17.16;57.43;100775.41;4994961;28;1213;-56
2022/08/03 08:10:48;;;;;;;;;;;;;;;17.13;57.51;100773.22;4995508;28;1078;-57
2022/08/03 08:13:13;;;;;;;;;;;;;;;17.18;57.27;100783.38;4995729;28;1914;-57
2022/08/03 08:15:39;;;;;;;;;;;;;;;17.16;57.30;100767.16;4996109;28;1035;-57
2022/08/03 08:18:04;;;;;;;;;;;;;;;17.15;57.23;100772.94;4994936;28;1240;-56
2022/08/03 08:20:31;;;;;;;;;;;;;;;17.17;57.07;100781.75;4995280;28;1197;-58
2022/08/03 08:22:56;;;;;;;;;;;;;;;17.18;57.40;100786.13;4995642;28;1287;-57
2022/08/03 08:25:22;;;;;;;;;;;;;;;17.13;57.39;100775.16;4995851;28;1363;-58
2022/08/03 08:27:48;;;;;;;;;;;;;;;17.12;57.24;100779.81;4994944;28;1236;-56
2022/08/03 08:30:14;;;;;;;;;;;;;;;17.17;57.43;100785.31;4996259;28;2824;-58
2022/08/03 08:32:39;;;;;;;;;;;;;;;17.09;57.73;100775.69;4990928;28;1887;-60
2022/08/03 08:35:05;;;;;;;;;;;;;;;17.18;57.34;100795.22;4992823;28;1164;-55
2022/08/03 08:37:31;;;;;;;;;;;;;;;17.15;57.64;100781.19;4992402;28;1077;-54
2022/08/03 08:39:57;;;;;;;;;;;;;;;17.07;57.47;100766.91;4983781;28;1166;-56
2022/08/03 08:42:22;;;;;;;;;;;;;;;17.12;57.25;100777.06;4989122;28;1027;-57
2022/08/03 08:44:48;;;;;;;;;;;;;;;17.17;57.63;100770.75;4991630;28;1181;-56
2022/08/03 08:47:13;;;;;;;;;;;;;;;17.19;57.68;100774.03;4987703;28;983;-59
2022/08/03 08:49:39;;;;;;;;;;;;;;;17.10;57.88;100780.09;4983191;28;1176;-56
2022/08/03 08:52:04;;;;;;;;;;;;;;;17.15;57.62;100772.94;4995020;28;1983;-58
2022/08/03 08:54:30;;;;;;;;;;;;;;;17.13;57.62;100772.41;4984791;28;1234;-59
2022/08/03 08:56:55;;;;;;;;;;;;;;;17.13;57.72;100777.91;4986527;28;1442;-53
2022/08/03 08:59:21;;;;;;;;;;;;;;;17.10;57.45;100774.59;4972704;28;2531;-55
2022/08/03 09:01:46;;;;;;;;;;;;;;;17.14;57.25;100776.78;4969126;28;1145;-56
2022/08/03 09:04:11;;;;;;;;;;;;;;;17.14;57.26;100771.28;4972700;28;999;-57
2022/08/03 09:06:37;;;;;;;;;;;;;;;17.13;57.22;100777.91;4966821;28;1137;-56
2022/08/03 09:09:02;;;;;;;;;;;;;;;17.15;57.36;100778.44;4968558;28;1129;-57
2022/08/03 09:11:28;;;;;;;;;;;;;;;17.13;57.47;100775.16;4998862;28;1910;-59
2022/08/03 09:13:53;;;;;;;;;;;;;;;17.09;57.24;100778.44;4970842;28;1081;-55
2022/08/03 09:16:20;;;;;;;;;;;;;;;17.10;57.24;100768.28;4978603;28;1007;-53
2022/08/03 09:18:49;;;;;;;;;;;;;;;17.10;57.20;100758.13;4976834;28;1050;-57
2022/08/03 09:21:30;;;;;;;;;;;;;;;17.11;57.09;100761.72;4979879;28;1093;-56
2022/08/03 09:23:56;;;;;;;;;;;;;;;17.09;57.10;100759.22;4975483;28;1098;-55
2022/08/03 09:26:22;;;;;;;;;;;;;;;17.14;57.16;100776.78;4977180;28;998;-57
2022/08/03 09:28:53;;;;;;;;;;;;;;;17.06;57.30;100764.44;4976860;28;1850;-58
2022/08/03 09:31:19;;;;;;;;;;;;;;;17.06;57.01;100758.97;4969266;28;1976;-56
2022/08/03 09:33:47;;;;;;;;;;;;;;;17.07;57.25;100758.69;4974421;28;1018;-56
2022/08/03 09:36:31;;;;;;;;;;;;;;;17.06;57.22;100756.22;4978125;28;1043;-55
2022/08/03 09:39:05;;;;;;;;;;;;;;;17.06;57.19;100754.28;4977917;28;1205;-55
2022/08/03 09:41:30;;;;;;;;;;;;;;;17.09;56.88;100750.97;4977170;28;1245;-56
2022/08/03 09:43:56;;;;;;;;;;;;;;;17.08;57.12;100743.84;4979349;28;1220;-56
2022/08/03 09:46:21;;;;;;;;;;;;;;;17.06;56.89;100750.72;4978420;28;1248;-56
2022/08/03 09:48:47;;;;;;;;;;;;;;;17.05;57.16;100755.38;4975723;28;1251;-53
2022/08/03 09:51:14;;;;;;;;;;;;;;;17.02;57.29;100744.94;4979232;28;1987;-55
2022/08/03 09:53:43;;;;;;;;;;;;;;;17.04;57.32;100756.50;4978032;28;1225;-54
2022/08/03 09:56:08;;;;;;;;;;;;;;;17.09;57.05;100750.16;4995500;28;1181;-52
2022/08/03 09:58:34;;;;;;;;;;;;;;;17.05;56.95;100749.06;4998071;28;1252;-56
2022/08/03 10:00:59;;;;;;;;;;;;;;;17.07;56.94;100749.63;4995275;28;2772;-57
2022/08/03 10:03:29;;;;;;;;;;;;;;;17.03;57.10;100741.09;4997544;28;1228;-57
2022/08/03 10:05:54;;;;;;;;;;;;;;;17.08;57.23;100754.00;4998207;28;1177;-57
2022/08/03 10:08:20;;;;;;;;;;;;;;;17.09;57.04;100756.47;4997418;28;1229;-57
2022/08/03 10:10:46;;;;;;;;;;;;;;;17.09;57.00;100752.91;4996315;28;1078;-57
2022/08/03 10:13:15;;;;;;;;;;;;;;;17.10;57.06;100758.13;4997495;28;1902;-58
2022/08/03 10:15:40;;;;;;;;;;;;;;;17.04;57.06;100753.75;4998192;28;1160;-58
2022/08/03 10:18:06;;;;;;;;;;;;;;;17.05;57.00;100740.81;4983871;28;1413;-54
2022/08/03 10:20:31;;;;;;;;;;;;;;;17.07;56.85;100747.69;4997782;28;1117;-55
2022/08/03 10:22:57;;;;;;;;;;;;;;;17.04;57.09;100734.50;4997658;28;1208;-57
2022/08/03 10:25:22;;;;;;;;;;;;;;;17.06;57.00;100740.53;4995827;28;1196;-55
2022/08/03 10:27:48;;;;;;;;;;;;;;;17.08;57.01;100732.84;5012531;28;1156;-53
2022/08/03 10:30:13;;;;;;;;;;;;;;;17.07;57.14;100735.88;5011816;28;2401;-55
2022/08/03 10:32:39;;;;;;;;;;;;;;;17.08;56.94;100723.78;5011908;28;1907;-55
2022/08/03 10:35:05;;;;;;;;;;;;;;;17.02;56.91;100720.22;4997212;28;1216;-55
2022/08/03 10:37:31;;;;;;;;;;;;;;;17.06;56.83;100724.06;4997324;28;1023;-56
2022/08/03 10:39:57;;;;;;;;;;;;;;;17.13;56.82;100717.47;4997858;28;1221;-55
2022/08/03 10:42:23;;;;;;;;;;;;;;;17.00;57.26;100725.19;4986685;28;1145;-55
2022/08/03 10:44:49;;;;;;;;;;;;;;;17.05;57.20;100722.41;4984398;28;1188;-53
2022/08/03 10:47:14;;;;;;;;;;;;;;;17.05;56.96;100718.84;4992837;28;1034;-55
2022/08/03 10:49:40;;;;;;;;;;;;;;;17.05;56.94;100722.41;4996948;28;959;-58
2022/08/03 10:52:05;;;;;;;;;;;;;;;17.08;56.79;100726.53;4996854;28;1914;-54
2022/08/03 10:54:34;;;;;;;;;;;;;;;17.03;57.12;100730.13;4988800;28;1180;-58
2022/08/03 10:59:47;;;;;;;;;;;;;;;17.05;56.99;100725.16;4992041;28;2413;-59
2022/08/03 11:02:14;;;;;;;;;;;;;;;17.04;56.93;100726.28;4994529;28;1487;-57
2022/08/03 11:04:40;;;;;;;;;;;;;;;17.06;57.02;100718.56;4983600;28;978;-56
2022/08/03 11:07:14;;;;;;;;;;;;;;;17.04;57.01;100717.19;4982049;28;979;-57
2022/08/03 11:09:47;;;;;;;;;;;;;;;17.02;57.08;100703.72;4992338;28;1102;-56
2022/08/03 11:12:21;;;;;;;;;;;;;;;17.05;56.95;100714.16;4995632;28;1976;-57
2022/08/03 11:14:47;;;;;;;;;;;;;;;17.08;56.77;100699.03;4996461;28;1216;-59
2022/08/03 11:17:12;;;;;;;;;;;;;;;17.10;57.21;100713.34;4995472;28;1078;-56
2022/08/03 11:19:45;;;;;;;;;;;;;;;17.10;56.83;100708.66;4996496;28;1090;-56
2022/08/03 11:22:10;;;;;;;;;;;;;;;17.07;57.01;100695.50;4975335;28;1181;-51
2022/08/03 11:24:36;;;;;;;;;;;;;;;17.09;57.07;100706.19;4981678;28;1089;-56
2022/08/03 11:27:13;;;;;;;;;;;;;;;17.03;57.24;100702.63;4989744;28;1015;-56
2022/08/03 11:29:55;;;;;;;;;;;;;;;17.04;56.90;100706.19;4985740;28;2521;-52
2022/08/03 11:32:36;;;;;;;;;;;;;;;17.02;56.82;100706.47;4994626;28;1963;-56
2022/08/03 11:35:13;;;;;;;;;;;;;;;17.02;56.84;100695.50;4992856;28;1096;-55
2022/08/03 11:37:57;;;;;;;;;;;;;;;17.01;56.99;100693.88;4993580;28;1252;-56
2022/08/03 11:40:38;;;;;;;;;;;;;;;17.02;56.88;100690.00;4993898;28;1229;-55
2022/08/03 11:43:04;;;;;;;;;;;;;;;17.02;56.84;100689.19;4993668;28;1157;-53
2022/08/03 11:45:30;;;;;;;;;;;;;;;17.06;56.51;100693.84;4995931;28;1245;-54
2022/08/03 11:47:57;;;;;;;;;;;;;;;17.00;56.84;100691.38;4991414;28;1280;-57
2022/08/03 11:50:23;;;;;;;;;;;;;;;17.03;56.82;100702.63;4996260;28;1232;-56
2022/08/03 11:52:48;;;;;;;;;;;;;;;17.02;56.62;100678.19;4996150;28;1902;-57
2022/08/03 11:55:15;;;;;;;;;;;;;;;17.02;56.76;100679.00;4994874;28;1295;-57
2022/08/03 11:57:40;;;;;;;;;;;;;;;17.03;56.84;100672.44;4992987;28;1182;-57
2022/08/03 12:00:24;;;;;;;;;;;;;;;17.01;56.74;100684.78;4995103;28;1185;-56
2022/08/03 12:03:10;;;;;;;;;;;;;;;17.01;56.92;100680.13;4993421;28;1256;-55
2022/08/03 12:05:45;;;;;;;;;;;;;;;16.95;57.16;100675.75;4995206;28;1162;-56
2022/08/03 12:08:11;;;;;;;;;;;;;;;16.99;56.80;100673.28;4993923;28;1237;-56
2022/08/03 12:10:37;;;;;;;;;;;;;;;16.99;57.06;100668.59;4994982;28;1127;-56
2022/08/03 12:13:09;;;;;;;;;;;;;;;17.00;57.10;100683.97;4992186;28;1910;-55
2022/08/03 12:15:35;;;;;;;;;;;;;;;16.98;56.84;100685.34;4995288;28;1074;-53
2022/08/03 12:18:01;;;;;;;;;;;;;;;16.97;57.12;100689.19;4994845;28;1058;-55
2022/08/03 12:20:27;;;;;;;;;;;;;;;16.96;56.96;100695.78;4995821;28;1062;-55
2022/08/03 12:22:53;;;;;;;;;;;;;;;17.00;57.06;100678.47;5006068;28;1118;-58
2022/08/03 12:25:22;;;;;;;;;;;;;;;17.01;56.88;100676.53;4984719;28;1141;-54
2022/08/03 12:27:48;;;;;;;;;;;;;;;16.96;56.97;100673.81;4981535;28;975;-58
2022/08/03 12:30:13;;;;;;;;;;;;;;;16.97;56.88;100686.44;4990377;28;1011;-56
2022/08/03 12:32:41;;;;;;;;;;;;;;;17.00;56.86;100686.72;4992446;28;1898;-57
2022/08/03 12:35:06;;;;;;;;;;;;;;;16.98;56.93;100682.59;4999348;28;1091;-54
2022/08/03 12:37:32;;;;;;;;;;;;;;;16.99;57.11;100679.56;4990538;28;1489;-55
2022/08/03 12:40:00;;;;;;;;;;;;;;;16.96;56.92;100673.81;5009646;28;1275;-55
2022/08/03 12:42:32;;;;;;;;;;;;;;;16.96;57.13;100671.91;4993434;28;1232;-55
2022/08/03 12:44:57;;;;;;;;;;;;;;;16.91;57.18;100660.91;4993178;28;1453;-54
2022/08/03 12:47:23;;;;;;;;;;;;;;;16.97;56.95;100679.03;4993894;28;1312;-55
2022/08/03 12:49:48;;;;;;;;;;;;;;;16.92;57.32;100679.03;4994668;28;1261;-57
2022/08/03 12:52:14;;;;;;;;;;;;;;;16.97;57.16;100679.03;4995034;28;1965;-52
2022/08/03 12:54:40;;;;;;;;;;;;;;;16.92;57.12;100668.06;4952206;28;1212837;-56